Time;durP1;ratioP1;P1;durP2;ratioP2;P2;SDS_P1;SDS_P2;PMS_P1;PMS_P2;Temp;Humidity;BMP_temperature;BMP_pressure;BME280_temperature;BME280_humidity;BME280_pressure;Samples;Min_cycle;Max_cycle;Signal;HPM_P1;HPM_P2
2022/11/26 00:02:17;;;;;;;2.20;2.20;;;4.90;99.90;;;;;;6310711;28;20272;-66
2022/11/26 00:05:23;;;;;;;2.43;2.33;;;4.90;99.90;;;;;;6309914;28;20296;-67
2022/11/26 00:08:33;;;;;;;2.00;2.00;;;4.90;99.90;;;;;;6309589;28;20301;-68
2022/11/26 00:11:38;;;;;;;2.73;1.90;;;4.80;99.90;;;;;;6310426;28;20288;-68
2022/11/26 00:14:44;;;;;;;2.27;2.17;;;4.90;99.90;;;;;;6310354;28;20608;-66
2022/11/26 00:17:49;;;;;;;2.60;2.40;;;4.80;99.90;;;;;;6309940;28;20268;-67
2022/11/26 00:20:56;;;;;;;2.20;2.20;;;4.70;99.90;;;;;;6313627;28;20268;-67
2022/11/26 00:24:01;;;;;;;2.73;2.63;;;4.80;99.90;;;;;;6314629;28;20297;-67
2022/11/26 00:27:09;;;;;;;2.23;2.23;;;4.70;99.90;;;;;;6314532;28;20299;-67
2022/11/26 00:30:19;;;;;;;2.63;2.43;;;4.80;99.90;;;;;;6330073;28;20304;-66
2022/11/26 00:33:24;;;;;;;2.03;2.00;;;4.80;99.90;;;;;;6315311;28;20603;-67
2022/11/26 00:36:32;;;;;;;2.37;2.27;;;4.80;99.90;;;;;;6314798;28;20265;-66
2022/11/26 00:39:37;;;;;;;2.27;2.17;;;4.80;99.90;;;;;;6313667;28;20301;-67
2022/11/26 00:42:41;;;;;;;2.77;2.57;;;4.80;99.90;;;;;;6314158;28;20281;-66
2022/11/26 00:45:49;;;;;;;2.50;2.40;;;4.70;99.90;;;;;;6313707;28;20447;-67
2022/11/26 00:48:54;;;;;;;2.73;2.43;;;4.70;99.90;;;;;;6313818;28;20297;-66
2022/11/26 00:51:58;;;;;;;2.80;2.60;;;4.80;99.90;;;;;;6313880;28;20286;-67
2022/11/26 00:55:10;;;;;;;2.63;2.43;;;4.70;99.90;;;;;;6313701;28;20294;-66
2022/11/26 00:58:25;;;;;;;2.40;2.37;;;4.80;99.90;;;;;;6313466;28;20295;-66
2022/11/26 01:01:32;;;;;;;3.00;2.90;;;4.80;99.90;;;;;;6313798;28;20266;-69
2022/11/26 01:04:36;;;;;;;2.40;2.40;;;4.80;99.90;;;;;;6313133;28;20300;-67
2022/11/26 01:07:42;;;;;;;3.03;2.33;;;4.80;99.90;;;;;;6314099;28;20273;-68
2022/11/26 01:10:47;;;;;;;2.70;2.50;;;4.80;99.90;;;;;;6313083;28;20277;-67
2022/11/26 01:13:54;;;;;;;2.90;2.80;;;4.80;99.90;;;;;;6313175;28;20486;-67
2022/11/26 01:17:00;;;;;;;2.57;2.47;;;4.80;99.90;;;;;;6314387;28;20273;-67
2022/11/26 01:20:20;;;;;;;2.90;2.70;;;4.70;99.90;;;;;;6313163;28;20293;-67
2022/11/26 01:23:28;;;;;;;3.10;2.90;;;4.70;99.90;;;;;;6312685;28;20308;-68
2022/11/26 01:26:37;;;;;;;3.17;2.80;;;4.70;99.90;;;;;;6313364;28;20276;-68
2022/11/26 01:29:41;;;;;;;3.50;3.20;;;4.80;99.90;;;;;;6313037;28;20293;-68
2022/11/26 01:32:48;;;;;;;2.70;2.50;;;4.70;99.90;;;;;;6311667;28;20292;-68
2022/11/26 01:35:53;;;;;;;2.80;2.70;;;4.70;99.90;;;;;;6313156;28;20447;-68
2022/11/26 01:39:00;;;;;;;3.13;2.93;;;4.70;99.90;;;;;;6312374;28;20299;-67
2022/11/26 01:42:10;;;;;;;2.93;2.83;;;4.60;99.90;;;;;;6286734;28;20613;-67
2022/11/26 01:45:16;;;;;;;3.43;3.13;;;4.60;99.90;;;;;;6287605;28;20293;-67
2022/11/26 01:48:29;;;;;;;2.90;2.80;;;4.60;99.90;;;;;;6287812;28;20426;-67
2022/11/26 01:51:33;;;;;;;4.17;3.03;;;4.60;99.90;;;;;;6287811;28;20269;-67
2022/11/26 01:54:40;;;;;;;3.93;3.30;;;4.70;99.90;;;;;;6287521;28;20608;-67
2022/11/26 01:57:46;;;;;;;3.00;2.80;;;4.70;99.90;;;;;;6288019;28;20278;-67
2022/11/26 02:00:51;;;;;;;2.90;2.80;;;4.60;99.90;;;;;;6287084;28;20307;-68
2022/11/26 02:04:11;;;;;;;3.27;3.17;;;4.60;99.90;;;;;;6287203;28;20482;-67
2022/11/26 02:07:16;;;;;;;3.43;3.13;;;4.60;99.90;;;;;;6288013;28;20269;-67
2022/11/26 02:10:21;;;;;;;4.17;3.20;;;4.50;99.90;;;;;;6287024;28;20341;-66
2022/11/26 02:13:26;;;;;;;3.10;3.00;;;4.60;99.90;;;;;;6286966;28;20309;-68
2022/11/26 02:17:02;;;;;;;3.90;3.20;;;4.60;99.90;;;;;;6287059;28;20264;-66
2022/11/26 02:20:46;;;;;;;3.43;3.20;;;4.70;99.90;;;;;;6284951;28;20294;-67
2022/11/26 02:24:19;;;;;;;3.50;3.33;;;4.70;99.90;;;;;;6286756;28;20297;-67
2022/11/26 02:27:51;;;;;;;3.40;3.20;;;4.70;99.90;;;;;;6286980;28;20272;-67
2022/11/26 02:31:03;;;;;;;2.87;2.77;;;4.60;99.90;;;;;;6286554;28;20272;-67
2022/11/26 02:34:15;;;;;;;3.10;3.00;;;4.60;99.90;;;;;;6286580;28;20302;-67
2022/11/26 02:37:25;;;;;;;3.40;3.20;;;4.60;99.90;;;;;;6287191;28;20268;-67
2022/11/26 02:40:30;;;;;;;3.90;3.23;;;4.70;99.90;;;;;;6286204;28;20325;-67
2022/11/26 02:43:35;;;;;;;3.50;3.40;;;4.60;99.90;;;;;;6285925;28;20297;-66
2022/11/26 02:50:59;;;;;;;3.17;3.07;;;4.70;99.90;;;;;;6281282;28;20273;-67
2022/11/26 02:54:06;;;;;;;3.70;3.50;;;4.70;99.90;;;;;;6286052;28;20300;-67
2022/11/26 02:57:14;;;;;;;4.20;3.90;;;4.60;99.90;;;;;;6286800;28;20550;-67
2022/11/26 03:00:20;;;;;;;4.17;3.60;;;4.60;99.90;;;;;;6285795;28;20293;-66
2022/11/26 03:03:29;;;;;;;3.70;3.57;;;4.60;99.90;;;;;;6285764;28;20498;-66
2022/11/26 03:06:35;;;;;;;4.47;3.60;;;4.60;99.90;;;;;;6286485;28;20273;-67
2022/11/26 03:09:41;;;;;;;3.53;3.33;;;4.60;99.90;;;;;;6285754;28;20469;-67
2022/11/26 03:12:45;;;;;;;4.17;3.77;;;4.60;99.90;;;;;;6265774;28;20271;-67
2022/11/26 03:15:50;;;;;;;3.90;3.60;;;4.70;99.90;;;;;;6236058;28;20298;-67
2022/11/26 03:18:56;;;;;;;3.80;3.57;;;4.70;99.90;;;;;;6236269;28;20298;-66
2022/11/26 03:22:01;;;;;;;3.97;3.77;;;4.70;99.90;;;;;;6236321;28;20576;-67
2022/11/26 03:25:07;;;;;;;4.17;3.90;;;4.60;99.90;;;;;;6228236;28;20299;-67
2022/11/26 03:28:12;;;;;;;4.13;3.83;;;4.60;99.90;;;;;;6236166;28;20586;-67
2022/11/26 03:31:17;;;;;;;3.97;3.77;;;4.60;99.90;;;;;;6236841;28;20275;-68
2022/11/26 03:34:23;;;;;;;4.67;4.17;;;4.60;99.90;;;;;;6235525;28;20302;-66
2022/11/26 03:37:28;;;;;;;4.37;4.07;;;4.50;99.90;;;;;;6236183;28;20275;-66
2022/11/26 03:40:33;;;;;;;3.90;3.60;;;4.60;99.90;;;;;;6249158;28;20357;-67
2022/11/26 03:43:38;;;;;;;3.57;3.37;;;4.60;99.90;;;;;;6284907;28;20298;-67
2022/11/26 03:46:42;;;;;;;3.43;3.30;;;4.60;99.90;;;;;;6285728;28;20544;-67
2022/11/26 03:49:48;;;;;;;3.47;3.30;;;4.60;99.90;;;;;;6284883;28;20297;-67
2022/11/26 03:52:53;;;;;;;3.33;3.23;;;4.60;99.90;;;;;;6284953;28;20526;-67
2022/11/26 03:55:58;;;;;;;3.60;3.40;;;4.60;99.90;;;;;;6288745;28;20284;-66
2022/11/26 03:59:02;;;;;;;3.33;3.10;;;4.50;99.90;;;;;;6289978;28;20298;-67
2022/11/26 04:02:08;;;;;;;3.37;3.17;;;4.50;99.90;;;;;;6306099;28;20568;-68
2022/11/26 04:05:14;;;;;;;3.40;3.20;;;4.60;99.90;;;;;;6287372;28;20617;-67
2022/11/26 04:08:19;;;;;;;3.33;3.00;;;4.50;99.90;;;;;;6289593;28;20260;-67
2022/11/26 04:11:24;;;;;;;2.70;2.60;;;4.60;99.90;;;;;;6282490;28;20449;-66
2022/11/26 04:14:28;;;;;;;3.17;3.07;;;4.60;99.90;;;;;;6264846;28;20302;-66
2022/11/26 04:17:33;;;;;;;2.43;2.33;;;4.60;99.90;;;;;;6265492;28;20266;-67
2022/11/26 04:20:39;;;;;;;2.77;2.67;;;4.50;99.90;;;;;;6278906;28;20292;-67
2022/11/26 04:23:43;;;;;;;2.93;2.70;;;4.50;99.90;;;;;;6289217;28;20292;-67
2022/11/26 04:26:48;;;;;;;2.77;2.57;;;4.50;99.90;;;;;;6289723;28;20269;-66
2022/11/26 04:29:53;;;;;;;2.90;2.80;;;4.50;99.90;;;;;;6294753;28;20300;-66
2022/11/26 04:32:58;;;;;;;2.80;2.70;;;4.50;99.90;;;;;;6289743;28;20407;-67
2022/11/26 04:36:04;;;;;;;3.07;2.97;;;4.50;99.90;;;;;;6289069;28;20308;-67
2022/11/26 04:39:11;;;;;;;3.00;2.80;;;4.50;99.90;;;;;;6264487;28;20289;-68
2022/11/26 04:42:15;;;;;;;3.00;2.80;;;4.50;99.90;;;;;;6265322;28;20301;-68
2022/11/26 04:45:20;;;;;;;3.60;3.00;;;4.40;99.90;;;;;;6264578;28;20298;-68
2022/11/26 04:48:25;;;;;;;3.63;3.43;;;4.40;99.90;;;;;;6264047;28;20269;-67
2022/11/26 04:51:31;;;;;;;3.73;3.43;;;4.40;99.90;;;;;;6264822;28;20284;-67
2022/11/26 04:54:35;;;;;;;2.90;2.80;;;4.40;99.90;;;;;;6264112;28;20302;-67
2022/11/26 04:57:41;;;;;;;3.67;3.43;;;4.50;99.90;;;;;;6264271;28;20565;-67
2022/11/26 05:00:46;;;;;;;3.67;3.17;;;4.40;99.90;;;;;;6264383;28;20473;-67
2022/11/26 05:03:54;;;;;;;4.53;3.23;;;4.50;99.90;;;;;;6263495;28;20285;-67
2022/11/26 05:07:00;;;;;;;3.93;3.47;;;4.50;99.90;;;;;;6264026;28;20273;-67
2022/11/26 05:10:07;;;;;;;3.93;3.60;;;4.50;99.90;;;;;;6263856;28;20313;-67
2022/11/26 05:13:12;;;;;;;4.10;3.73;;;4.40;99.90;;;;;;6288697;28;20289;-67
2022/11/26 05:16:16;;;;;;;4.20;3.80;;;4.50;99.90;;;;;;6281798;28;20480;-67
2022/11/26 05:19:21;;;;;;;3.60;3.40;;;4.50;99.90;;;;;;6263275;28;20489;-67
2022/11/26 05:22:27;;;;;;;3.80;3.60;;;4.50;99.90;;;;;;6264186;28;20274;-67
2022/11/26 05:25:32;;;;;;;4.47;3.70;;;4.40;99.90;;;;;;6263395;28;20610;-67
2022/11/26 05:28:37;;;;;;;4.03;3.77;;;4.50;99.90;;;;;;6263218;28;20594;-67
2022/11/26 05:31:41;;;;;;;4.77;3.93;;;4.50;99.90;;;;;;6264279;28;20270;-67
2022/11/26 05:34:46;;;;;;;4.13;3.83;;;4.50;99.90;;;;;;6262579;28;20301;-67
2022/11/26 05:37:52;;;;;;;5.57;3.80;;;4.50;99.90;;;;;;6263570;28;20273;-67
2022/11/26 05:40:56;;;;;;;4.37;4.10;;;4.50;99.90;;;;;;6263364;28;20308;-68
2022/11/26 05:44:01;;;;;;;4.17;3.87;;;4.50;99.90;;;;;;6263081;28;20294;-68
2022/11/26 05:47:06;;;;;;;3.90;3.70;;;4.60;99.90;;;;;;6263640;28;20274;-68
2022/11/26 05:50:11;;;;;;;4.20;4.00;;;4.50;99.90;;;;;;6262972;28;20297;-67
2022/11/26 05:53:17;;;;;;;4.20;3.97;;;4.50;99.90;;;;;;6261685;28;20284;-67
2022/11/26 05:56:22;;;;;;;4.13;3.83;;;4.50;99.90;;;;;;6263270;28;20297;-67
2022/11/26 05:59:27;;;;;;;4.43;4.13;;;4.50;99.90;;;;;;6262408;28;20296;-67
2022/11/26 06:02:32;;;;;;;5.83;3.97;;;4.50;99.90;;;;;;6263084;28;20269;-67
2022/11/26 06:05:37;;;;;;;5.23;4.23;;;4.60;99.90;;;;;;6262590;28;20297;-67
2022/11/26 06:08:43;;;;;;;5.23;3.83;;;4.60;99.90;;;;;;6262317;28;20295;-68
2022/11/26 06:11:49;;;;;;;4.63;4.23;;;4.60;99.90;;;;;;6276659;28;20264;-67
2022/11/26 06:14:54;;;;;;;4.37;4.00;;;4.50;99.90;;;;;;6286740;28;20324;-67
2022/11/26 06:17:58;;;;;;;4.40;3.93;;;4.50;99.90;;;;;;6286837;28;20301;-68
2022/11/26 06:21:05;;;;;;;4.50;4.10;;;4.40;99.90;;;;;;6286969;28;20317;-68
2022/11/26 06:24:13;;;;;;;5.20;4.70;;;4.50;99.90;;;;;;6286715;28;20293;-67
2022/11/26 06:27:17;;;;;;;4.27;3.90;;;4.60;99.90;;;;;;6287179;28;20267;-67
2022/11/26 06:30:22;;;;;;;4.97;4.47;;;4.60;99.90;;;;;;6268747;28;20296;-67
2022/11/26 06:33:27;;;;;;;4.23;4.00;;;4.50;99.90;;;;;;6286128;28;20317;-67
2022/11/26 06:36:32;;;;;;;4.23;3.90;;;4.60;99.90;;;;;;6286726;28;20503;-66
2022/11/26 06:39:38;;;;;;;4.70;4.33;;;4.60;99.90;;;;;;6285952;28;20474;-68
2022/11/26 06:42:42;;;;;;;4.23;3.93;;;4.60;99.90;;;;;;6287024;28;20274;-67
2022/11/26 06:45:47;;;;;;;4.67;4.27;;;4.60;99.90;;;;;;6286396;28;20302;-67
2022/11/26 06:48:52;;;;;;;4.50;4.13;;;4.60;99.90;;;;;;6286303;28;20293;-67
2022/11/26 06:51:56;;;;;;;4.27;3.97;;;4.60;99.90;;;;;;6286649;28;20269;-67
2022/11/26 06:55:02;;;;;;;4.60;3.87;;;4.60;99.90;;;;;;6285816;28;20293;-67
2022/11/26 06:58:07;;;;;;;4.37;4.07;;;4.50;99.90;;;;;;6285689;28;20550;-67
2022/11/26 07:01:16;;;;;;;4.30;4.00;;;4.50;99.90;;;;;;6286589;28;20266;-67
2022/11/26 07:04:20;;;;;;;4.77;4.47;;;4.60;99.90;;;;;;6285556;28;20593;-66
2022/11/26 07:07:25;;;;;;;4.50;4.10;;;4.60;99.90;;;;;;6286541;28;20272;-67
2022/11/26 07:10:31;;;;;;;4.60;4.20;;;4.60;99.90;;;;;;6285639;28;20293;-66
2022/11/26 07:13:36;;;;;;;4.97;4.37;;;4.60;99.90;;;;;;6285600;28;20298;-66
2022/11/26 07:16:40;;;;;;;4.80;4.40;;;4.60;99.90;;;;;;6285829;28;20481;-68
2022/11/26 07:19:45;;;;;;;4.30;4.00;;;4.60;99.90;;;;;;6285515;28;20328;-67
2022/11/26 07:22:50;;;;;;;3.93;3.73;;;4.60;99.90;;;;;;6285695;28;20477;-67
2022/11/26 07:25:58;;;;;;;4.50;4.10;;;4.60;99.90;;;;;;6285650;28;20297;-67
2022/11/26 07:29:03;;;;;;;4.90;4.40;;;4.60;99.90;;;;;;6285302;28;20293;-68
2022/11/26 07:32:07;;;;;;;4.97;4.23;;;4.50;99.90;;;;;;6286212;28;20270;-67
2022/11/26 07:35:12;;;;;;;4.43;3.93;;;4.60;99.90;;;;;;6285344;28;20300;-68
2022/11/26 07:38:17;;;;;;;4.60;4.30;;;4.50;99.90;;;;;;6285390;28;20301;-67
2022/11/26 07:41:25;;;;;;;4.40;4.10;;;4.60;99.90;;;;;;6286026;28;20487;-67
2022/11/26 07:44:29;;;;;;;4.80;4.40;;;4.60;99.90;;;;;;6285339;28;20292;-67
2022/11/26 07:47:34;;;;;;;6.40;4.50;;;4.60;99.90;;;;;;6285775;28;20571;-67
2022/11/26 07:50:42;;;;;;;4.50;4.20;;;4.60;99.90;;;;;;6285596;28;20593;-67
2022/11/26 07:53:47;;;;;;;4.93;4.53;;;4.60;99.90;;;;;;6285042;28;20301;-67
2022/11/26 07:56:53;;;;;;;5.47;4.83;;;4.60;99.90;;;;;;6285547;28;20479;-66
2022/11/26 07:59:58;;;;;;;5.20;4.80;;;4.60;99.90;;;;;;6285396;28;20300;-67
2022/11/26 08:03:02;;;;;;;5.00;4.50;;;4.60;99.90;;;;;;6285255;28;20268;-68
2022/11/26 08:06:09;;;;;;;7.50;4.60;;;4.60;99.90;;;;;;6260370;28;20566;-67
2022/11/26 08:09:13;;;;;;;5.03;4.40;;;4.60;99.90;;;;;;6260511;28;20323;-67
2022/11/26 08:12:19;;;;;;;5.57;4.30;;;4.50;99.90;;;;;;6278097;28;20454;-67
2022/11/26 08:15:24;;;;;;;5.67;5.13;;;4.60;99.90;;;;;;6285140;28;20294;-67
2022/11/26 08:18:29;;;;;;;5.30;4.80;;;4.60;99.90;;;;;;6283578;28;20557;-67
2022/11/26 08:21:34;;;;;;;4.10;3.80;;;4.60;99.90;;;;;;6285782;28;20269;-67
2022/11/26 08:24:38;;;;;;;4.90;4.60;;;4.60;99.90;;;;;;6285246;28;20302;-66
2022/11/26 08:27:45;;;;;;;4.43;4.13;;;4.70;99.90;;;;;;6285819;28;20277;-67
2022/11/26 08:30:50;;;;;;;5.10;4.70;;;4.70;99.90;;;;;;6284906;28;20302;-67
2022/11/26 08:33:57;;;;;;;5.53;4.73;;;4.60;99.90;;;;;;6284875;28;20293;-67
2022/11/26 08:37:02;;;;;;;4.33;4.07;;;4.60;99.90;;;;;;6285145;28;20286;-67
2022/11/26 08:40:08;;;;;;;6.87;4.60;;;4.60;99.90;;;;;;6285103;28;20306;-68
2022/11/26 08:43:17;;;;;;;7.37;5.40;;;4.60;99.90;;;;;;6289409;28;20264;-67
2022/11/26 08:46:22;;;;;;;6.40;4.80;;;4.60;99.90;;;;;;6289513;28;20273;-67
2022/11/26 08:49:26;;;;;;;4.87;4.37;;;4.60;99.90;;;;;;6289607;28;20522;-66
2022/11/26 08:52:31;;;;;;;5.10;4.47;;;4.60;99.90;;;;;;6289675;28;20265;-67
2022/11/26 08:55:36;;;;;;;6.10;4.57;;;4.60;99.90;;;;;;6289133;28;20301;-69
2022/11/26 08:59:02;;;;;;;5.13;4.63;;;4.70;99.90;;;;;;6288381;28;20301;-67
2022/11/26 09:02:07;;;;;;;4.63;4.33;;;4.60;99.90;;;;;;6288830;28;20277;-67
2022/11/26 09:05:14;;;;;;;5.73;5.00;;;4.60;99.90;;;;;;6289022;28;20460;-67
2022/11/26 09:08:19;;;;;;;5.60;5.10;;;4.60;99.90;;;;;;6288883;28;20273;-67
2022/11/26 09:11:23;;;;;;;5.83;5.03;;;4.60;99.90;;;;;;6289111;28;20266;-67
2022/11/26 09:14:35;;;;;;;4.67;4.40;;;4.60;99.90;;;;;;6288695;28;20298;-67
2022/11/26 09:17:41;;;;;;;5.27;4.77;;;4.70;99.90;;;;;;6289061;28;20289;-67
2022/11/26 09:20:45;;;;;;;5.10;4.23;;;4.60;99.90;;;;;;6288592;28;20453;-67
2022/11/26 09:23:50;;;;;;;5.70;5.10;;;4.70;99.90;;;;;;6288298;28;20292;-67
2022/11/26 09:26:54;;;;;;;6.30;4.97;;;4.70;99.90;;;;;;6288237;28;20298;-67
2022/11/26 09:30:01;;;;;;;6.13;4.93;;;4.70;99.90;;;;;;6288294;28;20480;-67
2022/11/26 09:33:06;;;;;;;5.77;5.27;;;4.70;99.90;;;;;;6288072;28;20267;-67
2022/11/26 09:36:13;;;;;;;5.80;5.27;;;4.60;99.90;;;;;;6287754;28;20264;-67
2022/11/26 09:39:18;;;;;;;6.13;4.40;;;4.60;99.90;;;;;;6287820;28;20296;-67
2022/11/26 09:42:34;;;;;;;6.77;4.63;;;4.60;99.90;;;;;;6287847;28;20464;-67
2022/11/26 09:45:44;;;;;;;6.27;4.90;;;4.60;99.90;;;;;;6287912;28;20581;-66
2022/11/26 09:48:49;;;;;;;5.73;5.13;;;4.70;99.90;;;;;;6287875;28;20487;-67
2022/11/26 09:51:55;;;;;;;5.10;4.70;;;4.70;99.90;;;;;;6287501;28;20279;-67
2022/11/26 09:55:11;;;;;;;5.77;5.27;;;4.70;99.90;;;;;;6286021;28;20293;-67
2022/11/26 09:58:20;;;;;;;5.87;5.40;;;4.80;99.90;;;;;;6286819;28;20471;-68
2022/11/26 10:01:33;;;;;;;5.13;4.73;;;4.80;99.90;;;;;;6287934;28;20272;-67
2022/11/26 10:04:39;;;;;;;45.37;26.40;;;4.60;99.90;;;;;;6287196;28;20293;-67
2022/11/26 10:07:58;;;;;;;15.80;11.00;;;4.70;99.90;;;;;;6287946;28;20455;-68
2022/11/26 10:11:10;;;;;;;10.00;9.10;;;4.70;99.90;;;;;;6287206;28;20294;-67
2022/11/26 10:14:33;;;;;;;6.93;5.97;;;4.70;99.90;;;;;;6287348;28;20292;-67
2022/11/26 10:17:49;;;;;;;4.93;4.53;;;4.70;99.90;;;;;;6287097;28;20265;-67
2022/11/26 10:21:14;;;;;;;5.60;5.10;;;4.70;99.90;;;;;;6287130;28;20457;-67
2022/11/26 10:24:33;;;;;;;5.47;4.97;;;4.80;99.90;;;;;;6286932;28;20293;-67
2022/11/26 10:27:38;;;;;;;5.30;4.90;;;4.70;99.90;;;;;;6287249;28;20269;-66
2022/11/26 10:30:43;;;;;;;7.27;6.27;;;4.80;99.90;;;;;;6286844;28;20293;-68
2022/11/26 10:34:00;;;;;;;6.20;5.00;;;4.80;99.90;;;;;;6286782;28;20287;-68
2022/11/26 10:37:05;;;;;;;5.30;4.80;;;4.80;99.90;;;;;;6286665;28;20285;-67
2022/11/26 10:40:23;;;;;;;5.03;4.63;;;4.80;99.90;;;;;;6286269;28;20307;-67
2022/11/26 10:43:27;;;;;;;5.53;5.10;;;4.80;99.90;;;;;;6286364;28;20554;-67
2022/11/26 10:46:36;;;;;;;6.37;5.07;;;4.80;99.90;;;;;;6287181;28;20290;-67
2022/11/26 10:49:42;;;;;;;5.87;5.40;;;4.80;99.90;;;;;;6286378;28;20301;-67
2022/11/26 10:52:47;;;;;;;5.27;4.87;;;4.70;99.90;;;;;;6287007;28;20553;-67
2022/11/26 10:55:53;;;;;;;6.87;5.20;;;4.80;99.90;;;;;;6286244;28;20300;-67
2022/11/26 10:59:03;;;;;;;5.87;5.27;;;4.80;99.90;;;;;;6286242;28;20304;-67
2022/11/26 11:02:30;;;;;;;4.90;4.50;;;4.90;99.90;;;;;;6286461;28;20278;-67
2022/11/26 11:05:36;;;;;;;5.50;5.00;;;4.90;99.90;;;;;;6285875;28;20304;-66
2022/11/26 11:08:41;;;;;;;5.97;5.40;;;4.80;99.90;;;;;;6286187;28;20301;-67
2022/11/26 11:11:46;;;;;;;5.23;4.80;;;4.90;99.90;;;;;;6286774;28;20262;-67
2022/11/26 11:14:51;;;;;;;5.20;4.70;;;4.90;99.90;;;;;;6286245;28;20298;-68
2022/11/26 11:17:59;;;;;;;5.33;4.83;;;5.00;99.90;;;;;;6285780;28;20269;-67
2022/11/26 11:21:06;;;;;;;5.77;4.97;;;4.90;99.90;;;;;;6285882;28;20312;-67
2022/11/26 11:24:16;;;;;;;7.20;4.77;;;4.90;99.90;;;;;;6284010;28;20596;-68
2022/11/26 11:27:26;;;;;;;6.80;4.87;;;4.90;99.90;;;;;;6285656;28;20465;-67
2022/11/26 11:30:33;;;;;;;5.37;4.90;;;5.00;99.90;;;;;;6285555;28;20297;-66
2022/11/26 11:33:38;;;;;;;5.37;4.70;;;4.90;99.90;;;;;;6285099;28;20305;-66
2022/11/26 11:36:45;;;;;;;6.27;4.67;;;4.90;99.90;;;;;;6286046;28;20273;-66
2022/11/26 11:40:05;;;;;;;5.50;5.00;;;4.90;99.90;;;;;;6285413;28;20313;-67
2022/11/26 11:43:15;;;;;;;6.80;6.03;;;5.00;99.90;;;;;;6285144;28;20270;-67
2022/11/26 11:47:00;;;;;;;5.93;4.70;;;5.00;99.90;;;;;;6286084;28;20566;-68
2022/11/26 11:50:18;;;;;;;8.70;5.23;;;4.90;99.90;;;;;;6282233;28;20296;-67
2022/11/26 11:53:36;;;;;;;5.43;4.80;;;5.00;99.90;;;;;;6285562;28;20277;-68
2022/11/26 11:56:44;;;;;;;4.93;4.60;;;5.00;99.90;;;;;;6285645;28;20271;-68
2022/11/26 12:00:12;;;;;;;5.00;4.70;;;5.00;99.90;;;;;;6285450;28;20298;-68
2022/11/26 12:04:03;;;;;;;5.00;4.60;;;4.90;99.90;;;;;;6285119;28;20497;-68
2022/11/26 12:07:37;;;;;;;5.77;4.70;;;4.90;99.90;;;;;;6285880;28;20274;-68
2022/11/26 12:10:53;;;;;;;7.53;5.10;;;4.90;99.90;;;;;;6285206;28;20471;-67
2022/11/26 12:14:02;;;;;;;4.97;4.60;;;4.90;99.90;;;;;;6284922;28;20289;-68
2022/11/26 12:17:16;;;;;;;5.60;5.10;;;4.80;99.90;;;;;;6289294;28;20274;-68
2022/11/26 12:20:28;;;;;;;4.73;4.43;;;4.90;99.90;;;;;;6288921;28;20625;-68
2022/11/26 12:23:38;;;;;;;5.10;4.67;;;4.80;99.90;;;;;;6289866;28;20290;-68
2022/11/26 12:26:49;;;;;;;4.40;4.10;;;4.90;99.90;;;;;;6290433;28;20449;-67
2022/11/26 12:29:57;;;;;;;4.90;4.40;;;4.80;99.90;;;;;;6289303;28;20316;-68
2022/11/26 12:33:06;;;;;;;6.23;5.73;;;4.80;99.90;;;;;;6290188;28;20282;-68
2022/11/26 12:36:18;;;;;;;7.00;4.93;;;4.80;99.90;;;;;;6288785;28;20565;-68
2022/11/26 12:39:35;;;;;;;5.97;5.47;;;4.80;99.90;;;;;;6289808;28;20535;-68
2022/11/26 12:42:44;;;;;;;5.33;4.93;;;4.70;99.90;;;;;;6290068;28;20275;-68
2022/11/26 12:45:55;;;;;;;5.23;4.83;;;4.70;99.90;;;;;;6289402;28;20300;-68
2022/11/26 12:49:06;;;;;;;5.33;4.83;;;4.70;99.90;;;;;;6289119;28;20460;-66
2022/11/26 12:52:28;;;;;;;6.03;5.40;;;4.70;99.90;;;;;;6289655;28;20265;-68
2022/11/26 12:55:45;;;;;;;5.43;4.93;;;4.80;99.90;;;;;;6289161;28;20305;-68
2022/11/26 12:58:59;;;;;;;5.30;4.90;;;4.80;99.90;;;;;;6288985;28;20294;-68
2022/11/26 13:02:19;;;;;;;5.97;5.47;;;4.80;99.90;;;;;;6289474;28;20454;-67
2022/11/26 13:05:31;;;;;;;5.63;5.10;;;4.80;99.90;;;;;;6289109;28;20580;-67
2022/11/26 13:08:45;;;;;;;5.07;4.77;;;4.80;99.90;;;;;;6288647;28;20298;-67
2022/11/26 13:11:57;;;;;;;5.20;4.83;;;4.80;99.90;;;;;;6289171;28;20269;-67
2022/11/26 13:15:12;;;;;;;5.30;4.93;;;4.80;99.90;;;;;;6288780;28;20293;-66
2022/11/26 13:18:28;;;;;;;4.80;4.50;;;4.80;99.90;;;;;;6288646;28;20265;-67
2022/11/26 13:21:54;;;;;;;4.87;4.60;;;4.70;99.90;;;;;;6288992;28;20299;-66
2022/11/26 13:25:39;;;;;;;5.40;4.90;;;4.90;99.90;;;;;;6288316;28;20298;-66
2022/11/26 13:29:06;;;;;;;6.27;5.37;;;4.90;99.90;;;;;;6288056;28;20289;-67
2022/11/26 13:32:51;;;;;;;5.60;5.10;;;4.80;99.90;;;;;;6288588;28;20305;-66
2022/11/26 13:36:38;;;;;;;5.80;5.30;;;4.80;99.90;;;;;;6265641;28;20292;-66
2022/11/26 13:40:05;;;;;;;6.20;5.73;;;4.80;99.90;;;;;;6240929;28;20300;-67
2022/11/26 13:43:33;;;;;;;6.10;5.50;;;4.80;99.90;;;;;;6287948;28;20435;-68
2022/11/26 13:46:39;;;;;;;5.50;4.90;;;4.80;99.90;;;;;;6288593;28;20278;-67
2022/11/26 13:49:50;;;;;;;5.43;4.93;;;4.80;99.90;;;;;;6288146;28;20294;-68
2022/11/26 13:52:59;;;;;;;5.70;5.20;;;4.80;99.90;;;;;;6288442;28;20267;-68
2022/11/26 13:56:07;;;;;;;5.53;5.03;;;4.70;99.90;;;;;;6287270;28;20470;-67
2022/11/26 13:59:18;;;;;;;6.40;5.03;;;4.70;99.90;;;;;;6287278;28;20610;-67
2022/11/26 14:02:43;;;;;;;5.63;5.20;;;4.80;99.90;;;;;;6287937;28;20290;-67
2022/11/26 14:06:10;;;;;;;5.77;5.27;;;4.80;99.90;;;;;;6287272;28;20293;-68
2022/11/26 14:09:47;;;;;;;6.07;5.03;;;4.70;99.90;;;;;;6283646;28;20290;-68
2022/11/26 14:13:11;;;;;;;5.97;5.40;;;4.70;99.90;;;;;;6287795;28;20270;-67
2022/11/26 14:16:16;;;;;;;6.30;5.40;;;4.60;99.90;;;;;;6286459;28;20268;-67
2022/11/26 14:19:21;;;;;;;5.40;5.00;;;4.60;99.90;;;;;;6287091;28;20292;-67
2022/11/26 14:22:32;;;;;;;7.37;5.93;;;4.60;99.90;;;;;;6287300;28;20585;-67
2022/11/26 14:25:38;;;;;;;6.53;5.93;;;4.60;99.90;;;;;;6286777;28;20605;-66
2022/11/26 14:28:42;;;;;;;5.83;5.40;;;4.50;99.90;;;;;;6286878;28;20293;-67
2022/11/26 14:31:50;;;;;;;5.90;5.40;;;4.50;99.90;;;;;;6287293;28;20400;-66
2022/11/26 14:34:57;;;;;;;6.87;5.80;;;4.60;99.90;;;;;;6286954;28;20290;-67
2022/11/26 14:38:05;;;;;;;5.77;5.20;;;4.50;99.90;;;;;;6286422;28;20278;-67
2022/11/26 14:41:10;;;;;;;8.63;5.43;;;4.50;99.90;;;;;;6285782;28;20300;-67
2022/11/26 14:44:17;;;;;;;5.93;5.50;;;4.50;99.90;;;;;;6286396;28;20342;-67
2022/11/26 14:47:22;;;;;;;7.23;5.60;;;4.50;99.90;;;;;;6287038;28;20458;-68
2022/11/26 14:50:31;;;;;;;6.37;5.77;;;4.60;99.90;;;;;;6286333;28;20296;-67
2022/11/26 14:53:46;;;;;;;5.43;4.67;;;4.60;99.90;;;;;;6286510;28;20295;-68
2022/11/26 14:56:51;;;;;;;6.37;5.23;;;4.60;99.90;;;;;;6286562;28;20470;-69
2022/11/26 14:59:58;;;;;;;6.00;5.50;;;4.40;99.90;;;;;;6286192;28;20297;-69
2022/11/26 15:03:03;;;;;;;8.23;5.43;;;4.50;99.90;;;;;;6286602;28;20291;-67
2022/11/26 15:06:25;;;;;;;6.63;6.03;;;4.50;99.90;;;;;;6267788;28;20275;-67
2022/11/26 15:09:31;;;;;;;9.33;5.90;;;4.50;99.90;;;;;;6285571;28;20420;-67
2022/11/26 15:12:36;;;;;;;6.13;5.63;;;4.50;99.90;;;;;;6266537;28;20270;-67
2022/11/26 15:15:51;;;;;;;5.83;5.33;;;4.50;99.90;;;;;;6261250;28;20293;-67
2022/11/26 15:18:56;;;;;;;5.27;4.80;;;4.40;99.90;;;;;;6261221;28;20296;-67
2022/11/26 15:22:03;;;;;;;6.70;5.13;;;4.40;99.90;;;;;;6261400;28;20293;-67
2022/11/26 15:25:17;;;;;;;6.10;5.60;;;4.50;99.90;;;;;;6261012;28;20297;-67
2022/11/26 15:28:23;;;;;;;5.73;5.30;;;4.60;99.90;;;;;;6260590;28;20274;-67
2022/11/26 15:31:40;;;;;;;5.60;5.10;;;4.60;99.90;;;;;;6261315;28;20278;-67
2022/11/26 15:34:45;;;;;;;5.47;4.97;;;4.50;99.90;;;;;;6260799;28;20293;-68
2022/11/26 15:37:50;;;;;;;5.30;4.90;;;4.40;99.90;;;;;;6261529;28;20274;-68
2022/11/26 15:40:59;;;;;;;5.40;4.90;;;4.50;99.90;;;;;;6260576;28;20305;-68
2022/11/26 15:44:04;;;;;;;5.10;4.70;;;4.40;99.90;;;;;;6260673;28;20285;-68
2022/11/26 15:47:19;;;;;;;5.40;4.93;;;4.40;99.90;;;;;;6261147;28;20455;-68
2022/11/26 15:50:28;;;;;;;6.57;5.27;;;4.50;99.90;;;;;;6261235;28;20296;-68
2022/11/26 15:53:36;;;;;;;5.87;5.37;;;4.50;99.90;;;;;;6265484;28;20478;-68
2022/11/26 15:56:42;;;;;;;5.77;5.27;;;4.50;99.90;;;;;;6266313;28;20461;-67
2022/11/26 15:59:52;;;;;;;5.77;5.00;;;4.50;99.90;;;;;;6265874;28;20297;-67
2022/11/26 16:02:57;;;;;;;5.70;5.10;;;4.50;99.90;;;;;;6265398;28;20285;-68
2022/11/26 16:06:05;;;;;;;5.60;5.10;;;4.50;99.90;;;;;;6265479;28;20291;-67
2022/11/26 16:09:25;;;;;;;6.03;5.43;;;4.40;99.90;;;;;;6265175;28;20288;-66
2022/11/26 16:12:35;;;;;;;7.07;5.50;;;4.50;99.90;;;;;;6284589;28;20268;-66
2022/11/26 16:15:47;;;;;;;5.73;5.27;;;4.40;99.90;;;;;;6290013;28;20309;-68
2022/11/26 16:18:57;;;;;;;5.33;5.00;;;4.60;99.90;;;;;;6289805;28;20476;-68
2022/11/26 16:22:04;;;;;;;5.17;4.83;;;4.60;99.90;;;;;;6289942;28;20285;-68
2022/11/26 16:25:21;;;;;;;5.53;5.13;;;4.60;99.90;;;;;;6289683;28;20297;-68
2022/11/26 16:28:27;;;;;;;5.20;4.83;;;4.60;99.90;;;;;;6289054;28;20266;-68
2022/11/26 16:31:32;;;;;;;5.43;5.13;;;4.50;99.90;;;;;;6289499;28;20268;-67
2022/11/26 16:34:37;;;;;;;5.57;5.17;;;4.50;99.90;;;;;;6289295;28;20308;-67
2022/11/26 16:37:44;;;;;;;5.60;5.10;;;4.50;99.90;;;;;;6289853;28;20269;-67
2022/11/26 16:40:49;;;;;;;5.30;4.90;;;4.50;99.90;;;;;;6288340;28;20308;-68
2022/11/26 16:43:55;;;;;;;4.77;4.47;;;4.50;99.90;;;;;;6289011;28;20297;-68